Port Hardy Airport
CYZT : now visible

Airfield :











YOU CAN JOIN US ON...

 
LOGIN :

Register | Disclaimer

   EN    FR    IT 

 









Legend :    VFR   Marginal VFR   IFR   Intensive IFR   Very Intensive IFR
Visi :
Ceiling :
>= 8 km
>= 3000ft
5 to 8 km
1000 to 3000 ft
1500m to 5 km
500 to 1000 ft
800 to 1500m
200 to 500 ft
< 800m
< 200 ft
Symbols :   Thunderstorms  Fog  Heavy snow  Heavy precipitations  Wind > 20 kt






- Airport Elevation : 71 ft
- IATA code : YZT


CYZT - Port Hardy

CURRENT METAR :
  • 260700Z 11017G24KT 15SM OVC150 08/05 A2969 RMK AC8 SLP056

EXPIRED METARs :
  • 260600Z 12014G21KT 15SM OVC150 08/05 A2972 RMK AC8 SLP067
  • 260500Z 11019G25KT 15SM OVC150 08/05 A2974 RMK AC8 SLP073

TAF TAF CYZT
Valid from the 26 at 07:00 until the 26 at 19:00 UTC


260638Z 2607/2619 11015G25KT P6SM FEW040 SCT060 BKN150
TEMPO 2607/2610 FEW010 BKN040
FM261000 11015G25KT P6SM -RA SCT006 OVC020
TEMPO 2610/2619 3SM -SHRA BR BKN006 OVC020 RMK NXT FCST BY 261300Z



MET'MAP, your aeronautical weather chart ! - Copyright ORBIFLY December 2007 - Disclaimer

ORBIFLY MET'MAP TEAM :

Programming & Development : Alexandra Zaïnal
Concept & original design : Baudouin d'Aumeries
Assistance for programming : Marc-Olivier Méhu
Technical & hardware support : Manuel Goepfert

Contact : metmap@orbifly.com




SOURCES & CREDITS :

   NOAA       Earth
Advisory